sensor_id;sensor_type;location;lat;lon;timestamp;pressure;altitude;pressure_sealevel;temperature;humidity
13661;BME280;6903;49.480;11.102;2023-04-28T00:00:54;97841.53;;;9.47;100.00
13661;BME280;6903;49.480;11.102;2023-04-28T00:03:20;97842.47;;;9.46;100.00
13661;BME280;6903;49.480;11.102;2023-04-28T00:05:45;97844.50;;;9.42;100.00
13661;BME280;6903;49.480;11.102;2023-04-28T00:08:11;97836.94;;;9.38;100.00
13661;BME280;6903;49.480;11.102;2023-04-28T00:10:36;97841.41;;;9.37;100.00
13661;BME280;6903;49.480;11.102;2023-04-28T00:13:02;97836.84;;;9.39;100.00
13661;BME280;6903;49.480;11.102;2023-04-28T00:15:27;97834.94;;;9.41;100.00
13661;BME280;6903;49.480;11.102;2023-04-28T00:17:52;97827.75;;;9.43;100.00
13661;BME280;6903;49.480;11.102;2023-04-28T00:20:18;97822.38;;;9.45;100.00
13661;BME280;6903;49.480;11.102;2023-04-28T00:22:43;97811.84;;;9.45;100.00
13661;BME280;6903;49.480;11.102;2023-04-28T00:25:09;97821.53;;;9.44;100.00
13661;BME280;6903;49.480;11.102;2023-04-28T00:27:34;97810.06;;;9.45;100.00
13661;BME280;6903;49.480;11.102;2023-04-28T00:30:00;97811.72;;;9.46;100.00
13661;BME280;6903;49.480;11.102;2023-04-28T00:32:26;97808.13;;;9.47;100.00
13661;BME280;6903;49.480;11.102;2023-04-28T00:34:51;97800.13;;;9.49;100.00
13661;BME280;6903;49.480;11.102;2023-04-28T00:37:17;97806.00;;;9.52;100.00
13661;BME280;6903;49.480;11.102;2023-04-28T00:39:43;97797.84;;;9.55;100.00
13661;BME280;6903;49.480;11.102;2023-04-28T00:42:13;97800.25;;;9.58;100.00
13661;BME280;6903;49.480;11.102;2023-04-28T00:44:39;97803.84;;;9.57;100.00
13661;BME280;6903;49.480;11.102;2023-04-28T00:47:06;97798.56;;;9.57;100.00
13661;BME280;6903;49.480;11.102;2023-04-28T00:49:32;97797.59;;;9.58;100.00
13661;BME280;6903;49.480;11.102;2023-04-28T00:52:00;97794.88;;;9.60;100.00
13661;BME280;6903;49.480;11.102;2023-04-28T00:54:29;97795.56;;;9.62;100.00
13661;BME280;6903;49.480;11.102;2023-04-28T00:56:55;97799.06;;;9.62;100.00
13661;BME280;6903;49.480;11.102;2023-04-28T00:59:21;97780.75;;;9.72;100.00
13661;BME280;6903;49.480;11.102;2023-04-28T01:01:46;97782.31;;;9.74;100.00
13661;BME280;6903;49.480;11.102;2023-04-28T01:04:13;97786.59;;;9.75;100.00
13661;BME280;6903;49.480;11.102;2023-04-28T01:06:40;97780.25;;;9.78;100.00
13661;BME280;6903;49.480;11.102;2023-04-28T01:09:05;97782.53;;;9.82;100.00
13661;BME280;6903;49.480;11.102;2023-04-28T01:11:31;97775.22;;;9.86;100.00
13661;BME280;6903;49.480;11.102;2023-04-28T01:13:56;97769.34;;;9.93;100.00
13661;BME280;6903;49.480;11.102;2023-04-28T01:16:23;97769.13;;;9.96;100.00
13661;BME280;6903;49.480;11.102;2023-04-28T01:18:50;97760.25;;;9.97;100.00
13661;BME280;6903;49.480;11.102;2023-04-28T01:21:24;97757.59;;;9.97;100.00
13661;BME280;6903;49.480;11.102;2023-04-28T01:23:50;97761.09;;;9.98;100.00
13661;BME280;6903;49.480;11.102;2023-04-28T01:26:16;97758.31;;;9.99;100.00
13661;BME280;6903;49.480;11.102;2023-04-28T01:28:41;97756.53;;;10.00;100.00
13661;BME280;6903;49.480;11.102;2023-04-28T01:31:06;97756.53;;;10.00;100.00
13661;BME280;6903;49.480;11.102;2023-04-28T01:33:32;97760.97;;;9.99;100.00
13661;BME280;6903;49.480;11.102;2023-04-28T01:35:57;97754.03;;;9.98;100.00
13661;BME280;6903;49.480;11.102;2023-04-28T01:38:23;97759.19;;;10.00;100.00
13661;BME280;6903;49.480;11.102;2023-04-28T01:40:48;97762.63;;;10.00;100.00
13661;BME280;6903;49.480;11.102;2023-04-28T01:43:13;97757.09;;;10.03;100.00
13661;BME280;6903;49.480;11.102;2023-04-28T01:45:39;97753.78;;;10.01;100.00
13661;BME280;6903;49.480;11.102;2023-04-28T01:48:04;97757.00;;;10.05;100.00
13661;BME280;6903;49.480;11.102;2023-04-28T01:50:30;97758.44;;;10.09;100.00
13661;BME280;6903;49.480;11.102;2023-04-28T01:52:55;97744.31;;;10.10;100.00
13661;BME280;6903;49.480;11.102;2023-04-28T01:55:21;97740.72;;;10.11;100.00
13661;BME280;6903;49.480;11.102;2023-04-28T01:57:46;97735.59;;;10.10;100.00
13661;BME280;6903;49.480;11.102;2023-04-28T02:00:12;97736.53;;;10.09;100.00
13661;BME280;6903;49.480;11.102;2023-04-28T02:02:37;97742.66;;;10.09;100.00
13661;BME280;6903;49.480;11.102;2023-04-28T02:05:02;97730.91;;;10.13;100.00
13661;BME280;6903;49.480;11.102;2023-04-28T02:07:27;97732.59;;;10.14;100.00
13661;BME280;6903;49.480;11.102;2023-04-28T02:09:53;97733.56;;;10.13;100.00
13661;BME280;6903;49.480;11.102;2023-04-28T02:12:18;97734.63;;;10.11;100.00
13661;BME280;6903;49.480;11.102;2023-04-28T02:14:43;97735.47;;;10.11;100.00
13661;BME280;6903;49.480;11.102;2023-04-28T02:17:09;97733.66;;;10.12;100.00
13661;BME280;6903;49.480;11.102;2023-04-28T02:19:34;97729.59;;;10.08;100.00
13661;BME280;6903;49.480;11.102;2023-04-28T02:21:59;97737.38;;;10.09;100.00
13661;BME280;6903;49.480;11.102;2023-04-28T02:24:25;97738.22;;;10.10;100.00
13661;BME280;6903;49.480;11.102;2023-04-28T02:26:50;97735.72;;;10.08;100.00
13661;BME280;6903;49.480;11.102;2023-04-28T02:29:15;97732.00;;;10.11;100.00
13661;BME280;6903;49.480;11.102;2023-04-28T02:31:40;97726.47;;;10.14;100.00
13661;BME280;6903;49.480;11.102;2023-04-28T02:34:06;97723.84;;;10.14;100.00
13661;BME280;6903;49.480;11.102;2023-04-28T02:36:31;97719.41;;;10.14;100.00
13661;BME280;6903;49.480;11.102;2023-04-28T02:38:57;97731.59;;;10.15;100.00
13661;BME280;6903;49.480;11.102;2023-04-28T02:41:22;97719.88;;;10.19;100.00
13661;BME280;6903;49.480;11.102;2023-04-28T02:43:48;97712.09;;;10.18;100.00
13661;BME280;6903;49.480;11.102;2023-04-28T02:46:13;97708.50;;;10.19;100.00
13661;BME280;6903;49.480;11.102;2023-04-28T02:48:38;97707.28;;;10.23;100.00
13661;BME280;6903;49.480;11.102;2023-04-28T02:51:04;97706.91;;;10.27;100.00
13661;BME280;6903;49.480;11.102;2023-04-28T02:53:30;97707.63;;;10.29;100.00
13661;BME280;6903;49.480;11.102;2023-04-28T02:55:55;97704.00;;;10.30;100.00
13661;BME280;6903;49.480;11.102;2023-04-28T02:58:21;97696.81;;;10.32;100.00
13661;BME280;6903;49.480;11.102;2023-04-28T03:00:46;97702.56;;;10.37;100.00
13661;BME280;6903;49.480;11.102;2023-04-28T03:03:11;97698.94;;;10.38;100.00
13661;BME280;6903;49.480;11.102;2023-04-28T03:05:37;97704.09;;;10.40;100.00
13661;BME280;6903;49.480;11.102;2023-04-28T03:08:02;97699.53;;;10.42;100.00
13661;BME280;6903;49.480;11.102;2023-04-28T03:10:27;97690.53;;;10.44;100.00
13661;BME280;6903;49.480;11.102;2023-04-28T03:12:53;97680.84;;;10.45;100.00
13661;BME280;6903;49.480;11.102;2023-04-28T03:15:18;97681.56;;;10.47;100.00
13661;BME280;6903;49.480;11.102;2023-04-28T03:17:43;97682.34;;;10.47;100.00
13661;BME280;6903;49.480;11.102;2023-04-28T03:20:09;97670.03;;;10.48;100.00
13661;BME280;6903;49.480;11.102;2023-04-28T03:22:35;97667.38;;;10.48;100.00
13661;BME280;6903;49.480;11.102;2023-04-28T03:25:01;97672.66;;;10.48;100.00
13661;BME280;6903;49.480;11.102;2023-04-28T03:27:26;97658.16;;;10.53;100.00
13661;BME280;6903;49.480;11.102;2023-04-28T03:29:51;97652.88;;;10.53;100.00
13661;BME280;6903;49.480;11.102;2023-04-28T03:32:17;97657.31;;;10.53;100.00
13661;BME280;6903;49.480;11.102;2023-04-28T03:34:42;97654.53;;;10.54;100.00
13661;BME280;6903;49.480;11.102;2023-04-28T03:37:08;97654.41;;;10.56;100.00
13661;BME280;6903;49.480;11.102;2023-04-28T03:39:33;97650.78;;;10.57;100.00
13661;BME280;6903;49.480;11.102;2023-04-28T03:41:58;97645.53;;;10.57;100.00
13661;BME280;6903;49.480;11.102;2023-04-28T03:44:24;97653.06;;;10.61;100.00
13661;BME280;6903;49.480;11.102;2023-04-28T03:46:49;97641.69;;;10.61;100.00
13661;BME280;6903;49.480;11.102;2023-04-28T03:49:14;97638.06;;;10.62;100.00
13661;BME280;6903;49.480;11.102;2023-04-28T03:51:40;97644.19;;;10.62;100.00
13661;BME280;6903;49.480;11.102;2023-04-28T03:54:05;97644.75;;;10.66;100.00
13661;BME280;6903;49.480;11.102;2023-04-28T03:56:31;97644.91;;;10.64;100.00
13661;BME280;6903;49.480;11.102;2023-04-28T03:58:56;97630.59;;;10.67;100.00
13661;BME280;6903;49.480;11.102;2023-04-28T04:01:22;97634.94;;;10.68;100.00
13661;BME280;6903;49.480;11.102;2023-04-28T04:03:47;97632.16;;;10.69;100.00
13661;BME280;6903;49.480;11.102;2023-04-28T04:06:12;97625.06;;;10.70;100.00
13661;BME280;6903;49.480;11.102;2023-04-28T04:08:38;97630.06;;;10.73;100.00
13661;BME280;6903;49.480;11.102;2023-04-28T04:11:04;97629.84;;;10.76;100.00
13661;BME280;6903;49.480;11.102;2023-04-28T04:13:29;97616.38;;;10.79;100.00
13661;BME280;6903;49.480;11.102;2023-04-28T04:15:54;97620.69;;;10.80;100.00
13661;BME280;6903;49.480;11.102;2023-04-28T04:18:20;97621.41;;;10.82;100.00
13661;BME280;6903;49.480;11.102;2023-04-28T04:20:45;97621.13;;;10.85;100.00
13661;BME280;6903;49.480;11.102;2023-04-28T04:23:10;97612.38;;;10.84;100.00
13661;BME280;6903;49.480;11.102;2023-04-28T04:25:36;97620.00;;;10.87;100.00
13661;BME280;6903;49.480;11.102;2023-04-28T04:28:01;97621.44;;;10.91;100.00
13661;BME280;6903;49.480;11.102;2023-04-28T04:30:26;97625.88;;;10.91;100.00
13661;BME280;6903;49.480;11.102;2023-04-28T04:32:52;97628.38;;;10.92;100.00
13661;BME280;6903;49.480;11.102;2023-04-28T04:35:17;97628.94;;;10.96;100.00
13661;BME280;6903;49.480;11.102;2023-04-28T04:37:42;97633.16;;;10.98;100.00
13661;BME280;6903;49.480;11.102;2023-04-28T04:40:08;97626.75;;;11.01;100.00
13661;BME280;6903;49.480;11.102;2023-04-28T04:42:33;97627.47;;;11.03;100.00
13661;BME280;6903;49.480;11.102;2023-04-28T04:44:59;97624.56;;;11.06;100.00
13661;BME280;6903;49.480;11.102;2023-04-28T04:47:24;97626.22;;;11.07;100.00
13661;BME280;6903;49.480;11.102;2023-04-28T04:49:49;97619.72;;;11.11;100.00
13661;BME280;6903;49.480;11.102;2023-04-28T04:52:15;97632.78;;;11.12;100.00
13661;BME280;6903;49.480;11.102;2023-04-28T04:54:40;97635.28;;;11.14;100.00
13661;BME280;6903;49.480;11.102;2023-04-28T04:57:06;97623.88;;;11.13;100.00
13661;BME280;6903;49.480;11.102;2023-04-28T04:59:31;97623.75;;;11.15;100.00
13661;BME280;6903;49.480;11.102;2023-04-28T05:01:57;97619.31;;;11.15;100.00
13661;BME280;6903;49.480;11.102;2023-04-28T05:04:22;97627.09;;;11.17;100.00
13661;BME280;6903;49.480;11.102;2023-04-28T05:06:47;97631.25;;;11.19;100.00
13661;BME280;6903;49.480;11.102;2023-04-28T05:09:13;97626.56;;;11.23;100.00
13661;BME280;6903;49.480;11.102;2023-04-28T05:11:38;97633.38;;;11.25;100.00
13661;BME280;6903;49.480;11.102;2023-04-28T05:14:03;97632.41;;;11.26;100.00
13661;BME280;6903;49.480;11.102;2023-04-28T05:16:29;97633.97;;;11.29;100.00
13661;BME280;6903;49.480;11.102;2023-04-28T05:18:54;97628.41;;;11.32;100.00
13661;BME280;6903;49.480;11.102;2023-04-28T05:21:20;97639.41;;;11.37;100.00
13661;BME280;6903;49.480;11.102;2023-04-28T05:23:45;97641.06;;;11.38;100.00
13661;BME280;6903;49.480;11.102;2023-04-28T05:26:10;97635.50;;;11.41;100.00
13661;BME280;6903;49.480;11.102;2023-04-28T05:28:36;97638.84;;;11.43;100.00
13661;BME280;6903;49.480;11.102;2023-04-28T05:31:01;97630.25;;;11.51;100.00
13661;BME280;6903;49.480;11.102;2023-04-28T05:33:26;97636.81;;;11.56;100.00
13661;BME280;6903;49.480;11.102;2023-04-28T05:35:52;97640.97;;;11.59;100.00
13661;BME280;6903;49.480;11.102;2023-04-28T05:38:17;97640.16;;;11.58;100.00
13661;BME280;6903;49.480;11.102;2023-04-28T05:40:42;97637.72;;;11.66;100.00
13661;BME280;6903;49.480;11.102;2023-04-28T05:43:08;97636.16;;;11.64;100.00
13661;BME280;6903;49.480;11.102;2023-04-28T05:45:33;97640.34;;;11.66;100.00
13661;BME280;6903;49.480;11.102;2023-04-28T05:47:59;97638.94;;;11.72;100.00
13661;BME280;6903;49.480;11.102;2023-04-28T05:50:24;97635.75;;;11.78;100.00
13661;BME280;6903;49.480;11.102;2023-04-28T05:52:50;97637.44;;;11.79;100.00
13661;BME280;6903;49.480;11.102;2023-04-28T05:55:15;97640.47;;;11.65;100.00
13661;BME280;6903;49.480;11.102;2023-04-28T05:57:40;97639.31;;;11.58;100.00
13661;BME280;6903;49.480;11.102;2023-04-28T06:00:06;97633.59;;;11.53;100.00
13661;BME280;6903;49.480;11.102;2023-04-28T06:02:31;97633.59;;;11.53;100.00
13661;BME280;6903;49.480;11.102;2023-04-28T06:04:57;97630.66;;;11.46;100.00
13661;BME280;6903;49.480;11.102;2023-04-28T06:07:22;97633.56;;;11.33;100.00
13661;BME280;6903;49.480;11.102;2023-04-28T06:09:47;97624.66;;;11.34;100.00
13661;BME280;6903;49.480;11.102;2023-04-28T06:12:13;97630.19;;;11.31;100.00
13661;BME280;6903;49.480;11.102;2023-04-28T06:14:38;97624.66;;;11.34;100.00
13661;BME280;6903;49.480;11.102;2023-04-28T06:17:04;97625.66;;;11.43;100.00
13661;BME280;6903;49.480;11.102;2023-04-28T06:19:30;97631.50;;;11.47;100.00
13661;BME280;6903;49.480;11.102;2023-04-28T06:21:55;97626.09;;;11.48;100.00
13661;BME280;6903;49.480;11.102;2023-04-28T06:24:20;97634.44;;;11.43;100.00
13661;BME280;6903;49.480;11.102;2023-04-28T06:26:46;97629.09;;;11.34;100.00
13661;BME280;6903;49.480;11.102;2023-04-28T06:29:11;97626.59;;;11.32;100.00
13661;BME280;6903;49.480;11.102;2023-04-28T06:31:36;97631.72;;;11.34;100.00
13661;BME280;6903;49.480;11.102;2023-04-28T06:34:02;97635.75;;;11.28;100.00
13661;BME280;6903;49.480;11.102;2023-04-28T06:36:27;97633.97;;;11.29;100.00
13661;BME280;6903;49.480;11.102;2023-04-28T06:38:53;97624.94;;;11.31;100.00
13661;BME280;6903;49.480;11.102;2023-04-28T06:41:18;97623.28;;;11.40;100.00
13661;BME280;6903;49.480;11.102;2023-04-28T06:43:43;97629.97;;;11.44;100.00
13661;BME280;6903;49.480;11.102;2023-04-28T06:46:09;97623.31;;;11.50;100.00
13661;BME280;6903;49.480;11.102;2023-04-28T06:48:35;97619.00;;;11.48;100.00
13661;BME280;6903;49.480;11.102;2023-04-28T06:51:00;97616.47;;;11.47;100.00
13661;BME280;6903;49.480;11.102;2023-04-28T06:53:25;97605.38;;;11.43;100.00
13661;BME280;6903;49.480;11.102;2023-04-28T06:55:51;97609.81;;;11.43;100.00
13661;BME280;6903;49.480;11.102;2023-04-28T06:58:16;97604.09;;;11.38;100.00
13661;BME280;6903;49.480;11.102;2023-04-28T07:00:41;97606.31;;;11.33;100.00
13661;BME280;6903;49.480;11.102;2023-04-28T07:03:07;97608.53;;;11.28;100.00
13661;BME280;6903;49.480;11.102;2023-04-28T07:05:32;97613.22;;;11.24;100.00
13661;BME280;6903;49.480;11.102;2023-04-28T07:07:58;97616.53;;;11.17;100.00
13661;BME280;6903;49.480;11.102;2023-04-28T07:10:23;97606.81;;;11.08;100.00
13661;BME280;6903;49.480;11.102;2023-04-28T07:12:49;97606.09;;;11.06;100.00
13661;BME280;6903;49.480;11.102;2023-04-28T07:15:16;97605.66;;;11.01;100.00
13661;BME280;6903;49.480;11.102;2023-04-28T07:17:41;97605.94;;;11.07;100.00
13661;BME280;6903;49.480;11.102;2023-04-28T07:20:07;97605.69;;;11.10;100.00
13661;BME280;6903;49.480;11.102;2023-04-28T07:22:32;97606.25;;;11.14;100.00
13661;BME280;6903;49.480;11.102;2023-04-28T07:24:58;97608.06;;;11.13;100.00
13661;BME280;6903;49.480;11.102;2023-04-28T07:27:23;97616.69;;;11.15;100.00
13661;BME280;6903;49.480;11.102;2023-04-28T07:29:48;97620.66;;;11.10;100.00
13661;BME280;6903;49.480;11.102;2023-04-28T07:32:14;97624.03;;;11.12;100.00
13661;BME280;6903;49.480;11.102;2023-04-28T07:34:39;97632.91;;;11.11;100.00
13661;BME280;6903;49.480;11.102;2023-04-28T07:37:04;97642.59;;;11.01;100.00
13661;BME280;6903;49.480;11.102;2023-04-28T07:39:31;97643.25;;;10.93;100.00
13661;BME280;6903;49.480;11.102;2023-04-28T07:41:58;97638.06;;;10.82;100.00
13661;BME280;6903;49.480;11.102;2023-04-28T07:44:24;97639.50;;;10.66;100.00
13661;BME280;6903;49.480;11.102;2023-04-28T07:46:49;97634.28;;;10.55;100.00
13661;BME280;6903;49.480;11.102;2023-04-28T07:49:15;97644.13;;;10.53;100.00
13661;BME280;6903;49.480;11.102;2023-04-28T07:51:40;97640.78;;;10.51;100.00
13661;BME280;6903;49.480;11.102;2023-04-28T07:54:06;97644.00;;;10.54;100.00
13661;BME280;6903;49.480;11.102;2023-04-28T07:56:31;97646.63;;;10.54;100.00
13661;BME280;6903;49.480;11.102;2023-04-28T07:58:56;97652.28;;;10.50;100.00
13661;BME280;6903;49.480;11.102;2023-04-28T08:01:22;97649.47;;;10.42;100.00
13661;BME280;6903;49.480;11.102;2023-04-28T08:03:47;97651.66;;;10.37;100.00
13661;BME280;6903;49.480;11.102;2023-04-28T08:06:12;97663.03;;;10.37;100.00
13661;BME280;6903;49.480;11.102;2023-04-28T08:08:38;97661.59;;;10.33;100.00
13661;BME280;6903;49.480;11.102;2023-04-28T08:11:03;97658.25;;;10.31;100.00
13661;BME280;6903;49.480;11.102;2023-04-28T08:13:29;97655.06;;;10.28;100.00
13661;BME280;6903;49.480;11.102;2023-04-28T08:15:55;97660.06;;;10.31;100.00
13661;BME280;6903;49.480;11.102;2023-04-28T08:18:21;97651.19;;;10.32;100.00
13661;BME280;6903;49.480;11.102;2023-04-28T08:20:46;97654.28;;;10.37;100.00
13661;BME280;6903;49.480;11.102;2023-04-28T08:23:11;97646.56;;;10.45;100.00
13661;BME280;6903;49.480;11.102;2023-04-28T08:25:37;97644.78;;;10.45;100.00
13661;BME280;6903;49.480;11.102;2023-04-28T08:28:02;97642.13;;;10.45;100.00
13661;BME280;6903;49.480;11.102;2023-04-28T08:30:28;97642.69;;;10.49;100.00
13661;BME280;6903;49.480;11.102;2023-04-28T08:32:53;97629.97;;;10.54;100.00
13661;BME280;6903;49.480;11.102;2023-04-28T08:35:19;97641.34;;;10.54;100.00
13661;BME280;6903;49.480;11.102;2023-04-28T08:37:44;97634.56;;;10.52;100.00
13661;BME280;6903;49.480;11.102;2023-04-28T08:40:10;97628.63;;;10.59;100.00
13661;BME280;6903;49.480;11.102;2023-04-28T08:42:36;97617.88;;;10.72;100.00
13661;BME280;6903;49.480;11.102;2023-04-28T08:45:03;97611.97;;;10.89;100.00
13661;BME280;6903;49.480;11.102;2023-04-28T08:47:38;97604.81;;;11.00;100.00
13661;BME280;6903;49.480;11.102;2023-04-28T08:50:11;97591.25;;;11.05;100.00
13661;BME280;6903;49.480;11.102;2023-04-28T08:52:38;97595.72;;;11.14;100.00
13661;BME280;6903;49.480;11.102;2023-04-28T08:55:11;97594.72;;;11.15;100.00
13661;BME280;6903;49.480;11.102;2023-04-28T08:57:43;97596.84;;;11.21;100.00
13661;BME280;6903;49.480;11.102;2023-04-28T09:00:10;97606.44;;;11.22;100.00
13661;BME280;6903;49.480;11.102;2023-04-28T09:02:35;97608.50;;;11.18;100.00
13661;BME280;6903;49.480;11.102;2023-04-28T09:05:07;97606.13;;;11.15;100.00
13661;BME280;6903;49.480;11.102;2023-04-28T09:07:33;97606.66;;;11.09;100.00
13661;BME280;6903;49.480;11.102;2023-04-28T09:10:19;97608.63;;;11.17;100.00
13661;BME280;6903;49.480;11.102;2023-04-28T09:12:46;97611.84;;;11.20;100.00
13661;BME280;6903;49.480;11.102;2023-04-28T09:15:33;97611.41;;;11.15;100.00
13661;BME280;6903;49.480;11.102;2023-04-28T09:18:00;97609.03;;;11.12;100.00
13661;BME280;6903;49.480;11.102;2023-04-28T09:20:27;97609.59;;;11.16;100.00
13661;BME280;6903;49.480;11.102;2023-04-28T09:22:55;97605.41;;;11.13;100.00
13661;BME280;6903;49.480;11.102;2023-04-28T09:25:22;97614.31;;;11.12;100.00
13661;BME280;6903;49.480;11.102;2023-04-28T09:27:50;97616.50;;;11.07;100.00
13661;BME280;6903;49.480;11.102;2023-04-28T09:30:16;97611.09;;;11.09;100.00
13661;BME280;6903;49.480;11.102;2023-04-28T09:32:41;97615.97;;;11.13;100.00
13661;BME280;6903;49.480;11.102;2023-04-28T09:35:07;97618.19;;;11.18;100.00
13661;BME280;6903;49.480;11.102;2023-04-28T09:37:33;97619.88;;;11.19;100.00
13661;BME280;6903;49.480;11.102;2023-04-28T09:40:09;97621.94;;;11.15;100.00
13661;BME280;6903;49.480;11.102;2023-04-28T09:42:39;97617.53;;;11.16;100.00
13661;BME280;6903;49.480;11.102;2023-04-28T09:45:09;97622.66;;;11.17;100.00
13661;BME280;6903;49.480;11.102;2023-04-28T09:47:45;97617.13;;;11.20;100.00
13661;BME280;6903;49.480;11.102;2023-04-28T09:50:14;97604.09;;;11.28;100.00
13661;BME280;6903;49.480;11.102;2023-04-28T09:52:41;97600.91;;;11.44;100.00
13661;BME280;6903;49.480;11.102;2023-04-28T09:55:10;97601.94;;;11.62;100.00
13661;BME280;6903;49.480;11.102;2023-04-28T09:57:36;97599.47;;;11.70;100.00
13661;BME280;6903;49.480;11.102;2023-04-28T10:00:03;97615.63;;;11.86;100.00
13661;BME280;6903;49.480;11.102;2023-04-28T10:02:34;97606.41;;;11.81;100.00
13661;BME280;6903;49.480;11.102;2023-04-28T10:05:00;97602.69;;;11.93;100.00
13661;BME280;6903;49.480;11.102;2023-04-28T10:07:26;97591.97;;;11.94;100.00
13661;BME280;6903;49.480;11.102;2023-04-28T10:09:51;97583.06;;;11.95;100.00
13661;BME280;6903;49.480;11.102;2023-04-28T10:12:19;97583.50;;;12.00;100.00
13661;BME280;6903;49.480;11.102;2023-04-28T10:14:45;97587.25;;;12.07;100.00
13661;BME280;6903;49.480;11.102;2023-04-28T10:17:15;97580.03;;;12.09;100.00
13661;BME280;6903;49.480;11.102;2023-04-28T10:19:43;97573.63;;;12.12;100.00
13661;BME280;6903;49.480;11.102;2023-04-28T10:27:39;97559.22;;;12.52;100.00
13661;BME280;6903;49.480;11.102;2023-04-28T10:30:19;97560.47;;;12.58;100.00
13661;BME280;6903;49.480;11.102;2023-04-28T10:32:47;97569.72;;;12.71;100.00
13661;BME280;6903;49.480;11.102;2023-04-28T10:38:07;97562.72;;;12.90;100.00
13661;BME280;6903;49.480;11.102;2023-04-28T10:40:37;97567.56;;;13.04;100.00
13661;BME280;6903;49.480;11.102;2023-04-28T10:43:03;97575.38;;;13.23;100.00
13661;BME280;6903;49.480;11.102;2023-04-28T10:48:13;97564.75;;;13.32;100.00
13661;BME280;6903;49.480;11.102;2023-04-28T10:56:07;97565.41;;;13.61;100.00
13661;BME280;6903;49.480;11.102;2023-04-28T10:58:33;97563.75;;;13.60;100.00
13661;BME280;6903;49.480;11.102;2023-04-28T11:06:25;97540.56;;;14.15;100.00
13661;BME280;6903;49.480;11.102;2023-04-28T11:11:24;97547.94;;;14.98;100.00
13661;BME280;6903;49.480;11.102;2023-04-28T11:13:51;97541.72;;;15.23;100.00
13661;BME280;6903;49.480;11.102;2023-04-28T11:16:19;97545.66;;;15.11;100.00
13661;BME280;6903;49.480;11.102;2023-04-28T11:19:02;97540.53;;;15.17;100.00
13661;BME280;6903;49.480;11.102;2023-04-28T11:21:29;97540.22;;;15.20;100.00
13661;BME280;6903;49.480;11.102;2023-04-28T11:23:56;97556.22;;;15.36;100.00
13661;BME280;6903;49.480;11.102;2023-04-28T11:26:22;97544.84;;;15.52;100.00
13661;BME280;6903;49.480;11.102;2023-04-28T11:28:53;97541.41;;;15.84;100.00
13661;BME280;6903;49.480;11.102;2023-04-28T11:31:20;97546.56;;;15.93;100.00
13661;BME280;6903;49.480;11.102;2023-04-28T11:34:00;97542.72;;;15.80;100.00
13661;BME280;6903;49.480;11.102;2023-04-28T11:36:37;97542.56;;;15.81;100.00
13661;BME280;6903;49.480;11.102;2023-04-28T11:39:05;97548.56;;;15.91;100.00
13661;BME280;6903;49.480;11.102;2023-04-28T11:41:32;97542.25;;;15.92;100.00
13661;BME280;6903;49.480;11.102;2023-04-28T11:43:58;97539.59;;;16.00;100.00
13661;BME280;6903;49.480;11.102;2023-04-28T11:46:24;97534.25;;;15.76;100.00
13661;BME280;6903;49.480;11.102;2023-04-28T11:49:04;97535.91;;;15.85;100.00
13661;BME280;6903;49.480;11.102;2023-04-28T11:51:34;97543.88;;;15.93;100.00
13661;BME280;6903;49.480;11.102;2023-04-28T11:54:01;97537.78;;;16.17;100.00
13661;BME280;6903;49.480;11.102;2023-04-28T11:56:27;97536.59;;;16.35;100.00
13661;BME280;6903;49.480;11.102;2023-04-28T11:59:07;97541.09;;;16.51;100.00
13661;BME280;6903;49.480;11.102;2023-04-28T12:01:34;97544.38;;;16.69;100.00
13661;BME280;6903;49.480;11.102;2023-04-28T12:04:01;97541.53;;;16.78;100.00
13661;BME280;6903;49.480;11.102;2023-04-28T12:06:27;97538.69;;;16.88;100.00
13661;BME280;6903;49.480;11.102;2023-04-28T12:08:54;97536.31;;;16.93;100.00
13661;BME280;6903;49.480;11.102;2023-04-28T12:11:19;97530.72;;;16.88;100.00
13661;BME280;6903;49.480;11.102;2023-04-28T12:14:02;97529.75;;;16.73;100.00
13661;BME280;6903;49.480;11.102;2023-04-28T12:16:41;97532.19;;;16.90;100.00
13661;BME280;6903;49.480;11.102;2023-04-28T12:19:11;97538.50;;;16.98;100.00
13661;BME280;6903;49.480;11.102;2023-04-28T12:21:37;97535.16;;;17.04;100.00
13661;BME280;6903;49.480;11.102;2023-04-28T12:24:17;97541.06;;;17.22;100.00
13661;BME280;6903;49.480;11.102;2023-04-28T12:26:43;97533.41;;;17.27;100.00
13661;BME280;6903;49.480;11.102;2023-04-28T12:29:08;97532.16;;;17.45;100.00
13661;BME280;6903;49.480;11.102;2023-04-28T12:31:49;97514.56;;;17.89;100.00
13661;BME280;6903;49.480;11.102;2023-04-28T12:34:17;97510.16;;;18.33;100.00
13661;BME280;6903;49.480;11.102;2023-04-28T12:36:42;97515.69;;;18.55;100.00
13661;BME280;6903;49.480;11.102;2023-04-28T12:39:13;97512.53;;;18.51;100.00
13661;BME280;6903;49.480;11.102;2023-04-28T12:41:40;97523.59;;;18.63;100.00
13661;BME280;6903;49.480;11.102;2023-04-28T12:44:06;97517.19;;;18.72;100.00
13661;BME280;6903;49.480;11.102;2023-04-28T12:46:31;97516.19;;;18.87;100.00
13661;BME280;6903;49.480;11.102;2023-04-28T12:48:57;97515.97;;;19.03;100.00
13661;BME280;6903;49.480;11.102;2023-04-28T12:51:22;97517.81;;;19.17;100.00
13661;BME280;6903;49.480;11.102;2023-04-28T12:53:48;97506.03;;;19.26;100.00
13661;BME280;6903;49.480;11.102;2023-04-28T12:56:13;97520.75;;;19.51;100.00
13661;BME280;6903;49.480;11.102;2023-04-28T12:58:38;97517.31;;;19.57;100.00
13661;BME280;6903;49.480;11.102;2023-04-28T13:01:04;97523.22;;;19.53;100.00
13661;BME280;6903;49.480;11.102;2023-04-28T13:03:29;97524.44;;;19.50;100.00
13661;BME280;6903;49.480;11.102;2023-04-28T13:05:54;97529.41;;;19.53;100.00
13661;BME280;6903;49.480;11.102;2023-04-28T13:08:20;97528.22;;;19.41;100.00
13661;BME280;6903;49.480;11.102;2023-04-28T13:10:45;97523.25;;;19.24;100.00